createdAt,value
2023-02-06T00:01:20.623Z,31.23
2023-02-06T00:03:47.272Z,31.51
2023-02-06T00:06:14.020Z,31.80
2023-02-06T00:08:40.853Z,31.62
2023-02-06T00:11:09.763Z,31.40
2023-02-06T00:13:37.008Z,31.81
2023-02-06T00:16:04.146Z,31.15
2023-02-06T00:18:31.449Z,31.74
2023-02-06T00:20:58.034Z,31.47
2023-02-06T00:23:24.627Z,31.54
2023-02-06T00:25:51.251Z,31.59
2023-02-06T00:28:17.860Z,31.52
2023-02-06T00:30:47.273Z,31.65
2023-02-06T00:33:13.953Z,30.78
2023-02-06T00:35:40.632Z,31.48
2023-02-06T00:38:09.657Z,31.54
2023-02-06T00:40:36.503Z,31.09
2023-02-06T00:43:03.135Z,31.73
2023-02-06T00:45:29.721Z,31.22
2023-02-06T00:47:56.380Z,31.34
2023-02-06T00:50:23.133Z,31.42
2023-02-06T00:52:49.725Z,31.61
2023-02-06T00:55:16.441Z,31.85
2023-02-06T00:57:43.025Z,31.30
2023-02-06T01:00:10.472Z,31.06
2023-02-06T01:02:37.128Z,31.58
2023-02-06T01:05:03.885Z,31.62
2023-02-06T01:07:30.577Z,31.34
2023-02-06T01:09:57.177Z,31.80
2023-02-06T01:12:23.950Z,31.56
2023-02-06T01:14:50.649Z,31.04
2023-02-06T01:17:17.260Z,31.09
2023-02-06T01:19:43.854Z,31.31
2023-02-06T01:22:10.428Z,31.03
2023-02-06T01:24:37.019Z,31.28
2023-02-06T01:27:03.820Z,31.56
2023-02-06T01:29:30.397Z,31.81
2023-02-06T01:31:56.978Z,31.73
2023-02-06T01:34:23.538Z,31.83
2023-02-06T01:36:50.181Z,31.58
2023-02-06T01:39:16.876Z,31.14
2023-02-06T01:41:43.492Z,31.46
2023-02-06T01:44:15.794Z,31.79
2023-02-06T01:46:45.414Z,31.32
2023-02-06T01:49:35.236Z,31.31
2023-02-06T01:52:17.288Z,30.80
2023-02-06T01:54:48.701Z,30.93
2023-02-06T01:57:16.903Z,31.82
2023-02-06T01:59:49.496Z,31.58
2023-02-06T02:02:16.291Z,31.66
2023-02-06T02:04:43.866Z,31.68
2023-02-06T02:07:19.787Z,31.38
2023-02-06T02:09:46.387Z,31.19
2023-02-06T02:12:13.685Z,31.02
2023-02-06T02:14:43.162Z,31.50
2023-02-06T02:17:38.785Z,31.13
2023-02-06T02:20:43.791Z,31.34
2023-02-06T02:23:34.983Z,31.08
2023-02-06T02:26:24.640Z,31.45
2023-02-06T02:29:33.068Z,31.28
2023-02-06T02:32:21.366Z,31.33
2023-02-06T02:35:09.571Z,31.76
2023-02-06T02:37:42.655Z,30.89
2023-02-06T02:40:27.758Z,31.34
2023-02-06T02:43:22.278Z,31.42
2023-02-06T02:45:59.381Z,31.05
2023-02-06T02:48:30.831Z,30.78
2023-02-06T02:50:59.898Z,30.79
2023-02-06T02:53:27.793Z,30.62
2023-02-06T02:55:54.675Z,30.51
2023-02-06T02:58:26.058Z,30.65
2023-02-06T03:01:02.354Z,30.21
2023-02-06T03:03:32.485Z,30.38
2023-02-06T03:06:11.188Z,30.23
2023-02-06T03:08:55.600Z,30.47
2023-02-06T03:11:23.064Z,29.92
2023-02-06T03:14:23.425Z,29.97
2023-02-06T03:17:04.998Z,30.04
2023-02-06T03:19:41.193Z,30.11
2023-02-06T03:22:07.895Z,29.63
2023-02-06T03:24:39.896Z,29.65
2023-02-06T03:27:14.085Z,30.14
2023-02-06T03:29:43.011Z,29.53
2023-02-06T03:32:24.891Z,29.47
2023-02-06T03:35:08.097Z,29.86
2023-02-06T03:37:36.145Z,29.82
2023-02-06T03:40:04.327Z,29.56
2023-02-06T03:42:33.844Z,29.90
2023-02-06T03:45:06.427Z,29.70
2023-02-06T03:47:37.058Z,30.15
2023-02-06T03:50:04.517Z,29.57
2023-02-06T03:52:37.416Z,29.87
2023-02-06T03:55:11.643Z,29.78
2023-02-06T03:57:40.757Z,29.92
2023-02-06T04:00:08.183Z,29.71
2023-02-06T04:02:36.673Z,29.19
2023-02-06T04:05:03.717Z,30.06
2023-02-06T04:07:33.232Z,30.67
2023-02-06T04:10:00.193Z,30.83
2023-02-06T04:12:28.015Z,30.83
2023-02-06T04:14:54.888Z,31.07
2023-02-06T04:17:40.766Z,30.88
2023-02-06T04:20:09.531Z,31.07
2023-02-06T04:22:36.489Z,31.03
2023-02-06T04:25:03.404Z,31.00
2023-02-06T04:27:30.389Z,30.82
2023-02-06T04:29:57.103Z,30.94
2023-02-06T04:32:24.465Z,30.82
2023-02-06T04:34:51.200Z,30.69
2023-02-06T04:37:18.184Z,30.53
2023-02-06T04:39:44.976Z,30.76
2023-02-06T04:42:11.593Z,30.68
2023-02-06T04:44:38.540Z,30.59
2023-02-06T04:47:05.757Z,30.46
2023-02-06T04:49:32.397Z,30.76
2023-02-06T04:51:59.150Z,30.51
2023-02-06T04:54:25.730Z,30.52
2023-02-06T04:56:52.409Z,30.86
2023-02-06T04:59:19.098Z,30.47
2023-02-06T05:01:45.779Z,30.65
2023-02-06T05:04:12.415Z,30.62
2023-02-06T05:06:39.059Z,30.50
2023-02-06T05:09:06.453Z,30.84
2023-02-06T05:11:33.114Z,31.00
2023-02-06T05:13:59.754Z,30.74
2023-02-06T05:16:26.545Z,30.70
2023-02-06T05:18:55.308Z,30.42
2023-02-06T05:21:22.415Z,30.96
2023-02-06T05:23:49.109Z,30.42
2023-02-06T05:26:16.047Z,31.01
2023-02-06T05:28:42.831Z,30.46
2023-02-06T05:31:09.768Z,30.88
2023-02-06T05:33:36.388Z,31.02
2023-02-06T05:36:07.228Z,31.22
2023-02-06T05:38:34.237Z,30.90
2023-02-06T05:41:01.048Z,31.42
2023-02-06T05:43:27.617Z,30.94
2023-02-06T05:45:54.218Z,30.87
2023-02-06T05:48:20.843Z,31.02
2023-02-06T05:50:50.313Z,31.01
2023-02-06T05:53:17.755Z,30.82
2023-02-06T05:55:44.396Z,31.08
2023-02-06T05:58:11.130Z,30.53
2023-02-06T06:00:37.705Z,30.92
2023-02-06T06:03:04.415Z,31.18
2023-02-06T06:05:30.972Z,31.24
2023-02-06T06:07:58.253Z,30.58
2023-02-06T06:10:31.432Z,30.94
2023-02-06T06:13:01.309Z,30.63
2023-02-06T06:15:31.132Z,31.24
2023-02-06T06:18:05.260Z,30.36
2023-02-06T06:20:39.671Z,30.90
2023-02-06T06:23:10.466Z,30.94
2023-02-06T06:25:41.607Z,30.53
2023-02-06T06:28:14.774Z,31.07
2023-02-06T06:30:48.820Z,30.98
2023-02-06T06:33:26.736Z,30.71
2023-02-06T06:35:56.143Z,31.01
2023-02-06T06:38:26.461Z,31.00
2023-02-06T06:40:55.033Z,30.86
2023-02-06T06:43:21.969Z,31.01
2023-02-06T06:45:54.721Z,31.15
2023-02-06T06:48:21.652Z,31.39
2023-02-06T06:50:51.523Z,31.81
2023-02-06T06:53:18.885Z,31.55
2023-02-06T06:55:45.499Z,31.49
2023-02-06T06:58:12.066Z,30.71
2023-02-06T07:00:39.957Z,31.36
2023-02-06T07:03:07.131Z,31.28
2023-02-06T07:05:35.036Z,31.08
2023-02-06T07:08:01.802Z,31.53
2023-02-06T07:10:28.442Z,31.23
2023-02-06T07:12:56.560Z,30.99
2023-02-06T07:15:23.603Z,31.46
2023-02-06T07:17:50.196Z,31.43
2023-02-06T07:20:16.937Z,31.05
2023-02-06T07:22:43.601Z,31.40
2023-02-06T07:25:10.229Z,31.08
2023-02-06T07:27:36.802Z,31.32
2023-02-06T07:30:06.154Z,31.18
2023-02-06T07:32:36.026Z,31.14
2023-02-06T07:35:02.901Z,31.01
2023-02-06T07:37:29.578Z,31.09
2023-02-06T07:39:56.271Z,31.05
2023-02-06T07:42:22.933Z,31.36
2023-02-06T07:44:49.545Z,31.63
2023-02-06T07:47:16.635Z,31.21
2023-02-06T07:49:43.245Z,31.35
2023-02-06T07:52:09.838Z,31.28
2023-02-06T07:54:36.438Z,31.29
2023-02-06T07:57:03.042Z,30.43
2023-02-06T07:59:29.742Z,31.45
2023-02-06T08:01:56.371Z,31.28
2023-02-06T08:04:22.990Z,31.26
2023-02-06T08:06:49.630Z,30.85
2023-02-06T08:09:17.534Z,31.34
2023-02-06T08:11:44.536Z,30.96
2023-02-06T08:14:11.547Z,31.49
2023-02-06T08:16:39.403Z,30.75
2023-02-06T08:19:06.957Z,31.28
2023-02-06T08:21:33.596Z,31.18
2023-02-06T08:24:00.992Z,30.89
2023-02-06T08:26:29.739Z,30.69
2023-02-06T08:28:57.957Z,30.63
2023-02-06T08:31:31.571Z,30.88
2023-02-06T08:33:58.279Z,30.79
2023-02-06T08:36:25.776Z,31.04
2023-02-06T08:38:53.181Z,31.20
2023-02-06T08:41:25.836Z,30.76
2023-02-06T08:43:58.399Z,30.90
2023-02-06T08:46:28.501Z,30.87
2023-02-06T08:48:56.765Z,31.17
2023-02-06T08:51:23.471Z,31.15
2023-02-06T08:53:50.044Z,31.06
2023-02-06T08:56:16.633Z,30.90
2023-02-06T08:58:43.284Z,30.93
2023-02-06T09:01:19.493Z,30.79
2023-02-06T09:03:47.368Z,30.74
2023-02-06T09:06:15.085Z,31.11
2023-02-06T09:08:42.569Z,30.26
2023-02-06T09:11:18.484Z,30.69
2023-02-06T09:13:49.936Z,30.88
2023-02-06T09:16:20.467Z,30.87
2023-02-06T09:18:48.266Z,30.57
2023-02-06T09:21:17.305Z,30.96
2023-02-06T09:23:49.016Z,30.70
2023-02-06T09:26:19.149Z,30.68
2023-02-06T09:28:45.774Z,30.90
2023-02-06T09:31:12.553Z,30.70
2023-02-06T09:33:40.094Z,31.08
2023-02-06T09:36:11.245Z,30.46
2023-02-06T09:38:43.214Z,30.78
2023-02-06T09:42:08.777Z,31.26
2023-02-06T09:44:35.344Z,30.91
2023-02-06T09:47:09.502Z,31.16
2023-02-06T09:49:40.552Z,30.84
2023-02-06T09:52:20.273Z,31.22
2023-02-06T09:55:01.622Z,31.13
2023-02-06T09:58:06.331Z,30.63
2023-02-06T10:00:45.028Z,30.97
2023-02-06T10:03:29.106Z,31.04
2023-02-06T10:06:02.846Z,31.08
2023-02-06T10:08:38.156Z,31.15
2023-02-06T10:11:15.990Z,31.36
2023-02-06T10:13:51.821Z,30.90
2023-02-06T10:16:33.102Z,30.83
2023-02-06T10:19:05.495Z,31.32
2023-02-06T10:21:42.762Z,31.22
2023-02-06T10:24:31.997Z,30.61
2023-02-06T10:27:03.076Z,30.76
2023-02-06T10:29:34.839Z,31.05
2023-02-06T10:32:13.081Z,30.93
2023-02-06T10:34:45.456Z,30.65
2023-02-06T10:37:24.305Z,30.50
2023-02-06T10:40:02.110Z,31.05
2023-02-06T10:42:49.225Z,31.03
2023-02-06T10:45:40.066Z,30.71
2023-02-06T10:48:24.912Z,31.01
2023-02-06T10:50:58.216Z,31.03
2023-02-06T10:53:35.364Z,30.83
2023-02-06T10:56:06.931Z,30.94
2023-02-06T10:58:40.640Z,30.81
2023-02-06T11:01:24.761Z,30.68
2023-02-06T11:04:12.309Z,30.61
2023-02-06T11:06:42.542Z,30.74
2023-02-06T11:09:10.324Z,30.67
2023-02-06T11:11:40.624Z,30.80
2023-02-06T11:14:18.632Z,30.95
2023-02-06T11:16:46.900Z,30.78
2023-02-06T11:19:30.949Z,30.93
2023-02-06T11:22:12.672Z,30.45
2023-02-06T11:24:59.692Z,30.86
2023-02-06T11:27:27.686Z,30.74
2023-02-06T11:29:54.580Z,31.00
2023-02-06T11:32:38.032Z,30.22
2023-02-06T11:35:28.240Z,30.75
2023-02-06T11:38:05.938Z,31.27
2023-02-06T11:40:32.527Z,30.48
2023-02-06T11:43:22.020Z,30.18
2023-02-06T11:45:52.307Z,30.15
2023-02-06T11:48:43.839Z,30.29
2023-02-06T11:51:11.776Z,30.00
2023-02-06T11:53:39.003Z,30.46
2023-02-06T11:56:14.836Z,30.29
2023-02-06T11:58:41.443Z,30.20
2023-02-06T12:01:18.019Z,30.25
2023-02-06T12:03:50.566Z,30.20
2023-02-06T12:06:34.901Z,30.06
2023-02-06T12:09:05.922Z,30.26
2023-02-06T12:11:57.850Z,30.22
2023-02-06T12:14:39.750Z,30.12
2023-02-06T12:17:22.389Z,30.21
2023-02-06T12:19:56.717Z,30.76
2023-02-06T12:22:24.830Z,30.33
2023-02-06T12:24:55.184Z,30.17
2023-02-06T12:27:39.145Z,30.39
2023-02-06T12:30:20.871Z,30.65
2023-02-06T12:32:53.712Z,30.18
2023-02-06T12:35:49.565Z,29.88
2023-02-06T12:38:55.741Z,30.19
2023-02-06T12:41:28.306Z,30.26
2023-02-06T12:44:18.357Z,30.17
2023-02-06T12:46:47.510Z,30.06
2023-02-06T12:49:23.557Z,30.34
2023-02-06T12:51:55.391Z,29.94
2023-02-06T12:54:28.416Z,30.23
2023-02-06T12:57:04.906Z,30.14
2023-02-06T12:59:58.063Z,30.36
2023-02-06T13:02:39.939Z,30.09
2023-02-06T13:05:28.071Z,29.93
2023-02-06T13:08:02.742Z,30.08
2023-02-06T13:10:29.428Z,30.14
2023-02-06T13:12:58.599Z,29.62
2023-02-06T13:15:36.225Z,30.03
2023-02-06T13:18:03.191Z,29.97
2023-02-06T13:20:31.838Z,30.10
2023-02-06T13:23:11.581Z,30.29
2023-02-06T13:25:38.359Z,29.94
2023-02-06T13:28:23.397Z,30.13
2023-02-06T13:31:00.564Z,29.90
2023-02-06T13:33:58.333Z,30.24
2023-02-06T13:36:26.937Z,30.22
2023-02-06T13:39:12.594Z,30.08
2023-02-06T13:41:42.267Z,30.16
2023-02-06T13:44:19.933Z,30.45
2023-02-06T13:47:24.116Z,30.45
2023-02-06T13:49:53.809Z,30.38
2023-02-06T13:52:32.960Z,29.74
2023-02-06T13:55:23.234Z,29.23
2023-02-06T13:58:05.882Z,29.03
2023-02-06T14:00:38.279Z,28.53
2023-02-06T14:03:23.709Z,29.06
2023-02-06T14:06:27.906Z,28.78
2023-02-06T14:09:43.891Z,28.13
2023-02-06T14:12:38.884Z,28.43
2023-02-06T14:15:16.560Z,28.49
2023-02-06T14:17:45.132Z,28.13
2023-02-06T14:20:37.888Z,28.16
2023-02-06T14:23:38.986Z,27.90
2023-02-06T14:26:26.757Z,28.00
2023-02-06T14:28:59.413Z,27.71
2023-02-06T14:31:26.800Z,27.30
2023-02-06T14:34:21.154Z,27.81
2023-02-06T14:37:36.241Z,27.78
2023-02-06T14:40:10.419Z,27.77
2023-02-06T14:42:43.237Z,27.30
2023-02-06T14:45:24.711Z,27.35
2023-02-06T14:47:52.778Z,27.87
2023-02-06T14:50:25.006Z,27.50
2023-02-06T14:52:58.527Z,27.53
2023-02-06T14:55:32.609Z,27.46
2023-02-06T14:57:59.577Z,27.66
2023-02-06T15:00:27.310Z,27.53
2023-02-06T15:03:05.986Z,27.86
2023-02-06T15:05:33.347Z,28.11
2023-02-06T15:08:02.151Z,28.32
2023-02-06T15:10:34.124Z,28.89
2023-02-06T15:13:01.032Z,28.81
2023-02-06T15:15:30.308Z,29.55
2023-02-06T15:17:56.884Z,29.63
2023-02-06T15:20:43.326Z,29.73
2023-02-06T15:23:26.838Z,29.74
2023-02-06T15:25:59.356Z,29.97
2023-02-06T15:28:31.512Z,29.77
2023-02-06T15:31:00.730Z,29.68
2023-02-06T15:33:31.198Z,29.26
2023-02-06T15:36:00.557Z,29.56
2023-02-06T15:38:29.599Z,29.19
2023-02-06T15:41:00.434Z,29.96
2023-02-06T15:43:28.018Z,29.50
2023-02-06T15:45:57.755Z,29.75
2023-02-06T15:48:30.864Z,29.64
2023-02-06T15:51:00.639Z,29.82
2023-02-06T15:53:42.590Z,30.01
2023-02-06T15:56:24.129Z,29.78
2023-02-06T15:58:58.138Z,30.18
2023-02-06T16:01:26.569Z,30.04
2023-02-06T16:03:57.984Z,30.11
2023-02-06T16:06:24.752Z,30.24
2023-02-06T16:09:02.885Z,30.42
2023-02-06T16:11:47.769Z,30.33
2023-02-06T16:14:23.398Z,30.72
2023-02-06T16:16:58.787Z,29.92
2023-02-06T16:19:38.904Z,30.26
2023-02-06T16:22:27.009Z,30.67
2023-02-06T16:25:12.792Z,30.42
2023-02-06T16:27:45.223Z,30.82
2023-02-06T16:30:26.655Z,30.79
2023-02-06T16:32:55.468Z,30.37
2023-02-06T16:35:23.345Z,30.74
2023-02-06T16:37:51.152Z,30.21
2023-02-06T16:40:18.452Z,30.64
2023-02-06T16:42:47.508Z,30.76
2023-02-06T16:45:23.420Z,30.60
2023-02-06T16:47:50.368Z,30.78
2023-02-06T16:50:17.208Z,31.41
2023-02-06T16:52:55.277Z,30.90
2023-02-06T16:55:24.385Z,31.49
2023-02-06T16:57:55.118Z,30.79
2023-02-06T17:00:31.445Z,31.36
2023-02-06T17:02:59.088Z,30.74
2023-02-06T17:05:27.514Z,31.23
2023-02-06T17:07:55.058Z,30.85
2023-02-06T17:10:25.168Z,30.97
2023-02-06T17:12:52.223Z,31.13
2023-02-06T17:15:19.723Z,31.45
2023-02-06T17:17:47.124Z,31.02
2023-02-06T17:20:38.478Z,31.54
2023-02-06T17:23:05.449Z,31.41
2023-02-06T17:25:32.863Z,31.43
2023-02-06T17:28:01.639Z,31.13
2023-02-06T17:30:28.510Z,30.96
2023-02-06T17:32:56.264Z,31.24
2023-02-06T17:35:23.063Z,30.61
2023-02-06T17:37:51.416Z,30.82
2023-02-06T17:40:27.518Z,31.27
2023-02-06T17:42:54.458Z,30.73
2023-02-06T17:45:21.075Z,31.03
2023-02-06T17:47:47.737Z,30.94
2023-02-06T17:50:20.249Z,30.66
2023-02-06T17:52:48.643Z,31.05
2023-02-06T17:55:16.291Z,30.87
2023-02-06T17:57:43.476Z,30.97
2023-02-06T18:00:14.724Z,30.86
2023-02-06T18:02:41.457Z,31.20
2023-02-06T18:05:08.923Z,30.96
2023-02-06T18:07:37.926Z,31.52
2023-02-06T18:10:05.514Z,30.85
2023-02-06T18:12:32.186Z,30.99
2023-02-06T18:14:59.014Z,31.23
2023-02-06T18:17:25.929Z,30.66
2023-02-06T18:19:52.623Z,31.13
2023-02-06T18:22:21.531Z,31.24
2023-02-06T18:24:49.385Z,30.70
2023-02-06T18:27:16.580Z,31.25
2023-02-06T18:29:50.522Z,31.09
2023-02-06T18:32:18.821Z,30.91
2023-02-06T18:34:45.673Z,30.77
2023-02-06T18:37:12.274Z,31.30
2023-02-06T18:39:39.572Z,31.78
2023-02-06T18:42:25.389Z,31.33
2023-02-06T18:44:52.259Z,31.07
2023-02-06T18:47:19.788Z,30.75
2023-02-06T18:49:46.760Z,31.35
2023-02-06T18:52:14.128Z,31.21
2023-02-06T18:54:40.739Z,30.75
2023-02-06T18:57:07.331Z,30.98
2023-02-06T18:59:34.708Z,31.24
2023-02-06T19:02:01.891Z,31.24
2023-02-06T19:04:28.525Z,31.13
2023-02-06T19:06:55.141Z,30.64
2023-02-06T19:09:21.777Z,31.45
2023-02-06T19:11:48.526Z,31.29
2023-02-06T19:14:17.013Z,31.11
2023-02-06T19:16:48.042Z,31.42
2023-02-06T19:19:14.915Z,31.24
2023-02-06T19:21:43.250Z,31.17
2023-02-06T19:24:15.484Z,30.62
2023-02-06T19:26:42.223Z,31.46
2023-02-06T19:29:09.501Z,30.75
2023-02-06T19:31:39.097Z,30.83
2023-02-06T19:34:06.588Z,30.66
2023-02-06T19:36:33.226Z,31.17
2023-02-06T19:39:02.427Z,30.53
2023-02-06T19:41:31.196Z,30.59
2023-02-06T19:44:01.308Z,30.41
2023-02-06T19:46:27.990Z,30.63
2023-02-06T19:48:55.715Z,30.69
2023-02-06T19:51:29.486Z,31.21
2023-02-06T19:53:57.612Z,30.62
2023-02-06T19:56:27.273Z,30.90
2023-02-06T19:58:58.994Z,31.22
2023-02-06T20:01:26.768Z,31.22
2023-02-06T20:03:53.391Z,30.82
2023-02-06T20:06:21.328Z,31.07
2023-02-06T20:08:48.190Z,30.59
2023-02-06T20:11:17.752Z,31.09
2023-02-06T20:13:46.113Z,31.25
2023-02-06T20:16:24.190Z,31.54
2023-02-06T20:18:50.960Z,31.16
2023-02-06T20:21:31.272Z,30.79
2023-02-06T20:24:00.479Z,31.07
2023-02-06T20:26:31.827Z,31.03
2023-02-06T20:28:59.436Z,30.53
2023-02-06T20:31:26.635Z,31.01
2023-02-06T20:33:53.652Z,31.13
2023-02-06T20:36:23.510Z,31.01
2023-02-06T20:38:52.552Z,30.88
2023-02-06T20:41:22.137Z,30.96
2023-02-06T20:43:48.732Z,30.88
2023-02-06T20:46:17.298Z,30.60
2023-02-06T20:48:45.920Z,31.13
2023-02-06T20:51:14.092Z,30.56
2023-02-06T20:53:41.252Z,31.09
2023-02-06T20:56:14.539Z,31.23
2023-02-06T20:58:41.962Z,31.14
2023-02-06T21:01:23.163Z,30.88
2023-02-06T21:03:51.883Z,30.97
2023-02-06T21:06:18.679Z,30.90
2023-02-06T21:08:47.141Z,30.79
2023-02-06T21:11:14.143Z,31.21
2023-02-06T21:13:41.416Z,30.50
2023-02-06T21:16:09.259Z,30.97
2023-02-06T21:18:36.351Z,31.31
2023-02-06T21:21:09.484Z,31.15
2023-02-06T21:23:40.451Z,30.92
2023-02-06T21:26:08.375Z,31.13
2023-02-06T21:28:37.060Z,31.03
2023-02-06T21:31:09.729Z,31.17
2023-02-06T21:33:37.161Z,31.17
2023-02-06T21:36:06.942Z,30.53
2023-02-06T21:38:35.025Z,30.84
2023-02-06T21:41:10.097Z,31.02
2023-02-06T21:43:36.842Z,30.94
2023-02-06T21:46:03.714Z,30.69
2023-02-06T21:48:30.829Z,30.80
2023-02-06T21:50:57.762Z,30.78
2023-02-06T21:53:24.517Z,30.67
2023-02-06T21:55:51.177Z,30.66
2023-02-06T21:58:17.924Z,30.74
2023-02-06T22:00:47.487Z,31.19
2023-02-06T22:03:14.978Z,30.50
2023-02-06T22:05:41.717Z,30.49
2023-02-06T22:08:08.321Z,30.87
2023-02-06T22:10:36.965Z,31.04
2023-02-06T22:13:04.920Z,30.76
2023-02-06T22:15:32.197Z,31.47
2023-02-06T22:17:58.793Z,30.58
2023-02-06T22:20:25.366Z,30.75
2023-02-06T22:22:53.406Z,31.13
2023-02-06T22:25:20.355Z,31.25
2023-02-06T22:27:47.073Z,30.73
2023-02-06T22:30:14.101Z,30.57
2023-02-06T22:32:40.825Z,30.78
2023-02-06T22:35:07.618Z,30.86
2023-02-06T22:37:34.608Z,31.37
2023-02-06T22:40:01.186Z,31.10
2023-02-06T22:42:27.794Z,31.31
2023-02-06T22:44:54.515Z,30.75
2023-02-06T22:47:21.112Z,30.79
2023-02-06T22:49:50.631Z,30.54
2023-02-06T22:52:35.697Z,31.12
2023-02-06T22:55:04.219Z,30.43
2023-02-06T22:57:30.904Z,30.72
2023-02-06T22:59:57.491Z,30.52
2023-02-06T23:02:24.074Z,30.27
2023-02-06T23:04:50.664Z,30.26
2023-02-06T23:07:17.260Z,30.84
2023-02-06T23:09:44.108Z,31.04
2023-02-06T23:12:11.677Z,31.06
2023-02-06T23:14:38.413Z,30.19
2023-02-06T23:17:05.067Z,30.25
2023-02-06T23:19:31.981Z,30.83
2023-02-06T23:21:58.561Z,30.60
2023-02-06T23:24:25.155Z,31.07
2023-02-06T23:26:53.696Z,30.75
2023-02-06T23:29:22.173Z,30.42
2023-02-06T23:31:49.179Z,30.53
2023-02-06T23:34:17.663Z,30.93
2023-02-06T23:36:44.602Z,30.03
2023-02-06T23:39:12.021Z,30.57
2023-02-06T23:41:38.894Z,30.41
2023-02-06T23:44:07.073Z,30.51
2023-02-06T23:46:36.240Z,31.01
2023-02-06T23:49:03.343Z,30.14
2023-02-06T23:51:29.989Z,30.40
2023-02-06T23:53:56.608Z,30.51
2023-02-06T23:56:28.684Z,30.19
2023-02-06T23:58:57.028Z,30.47
